createdAt,value
2022-10-13T00:03:50.553Z,13.50
2022-10-13T00:08:54.466Z,11.30
2022-10-13T00:13:59.449Z,13.20
2022-10-13T00:19:02.232Z,12.40
2022-10-13T00:24:04.813Z,12.90
2022-10-13T00:29:07.711Z,14.60
2022-10-13T00:34:10.211Z,13.60
2022-10-13T00:39:12.716Z,13.30
2022-10-13T00:44:52.883Z,17.60
2022-10-13T00:49:55.824Z,14.80
2022-10-13T00:54:59.549Z,12.50
2022-10-13T01:00:03.385Z,14.10
2022-10-13T01:05:07.874Z,13.00
2022-10-13T01:10:10.456Z,15.20
2022-10-13T01:15:22.520Z,14.50
2022-10-13T01:21:02.793Z,15.90
2022-10-13T01:26:20.630Z,15.90
2022-10-13T01:32:01.667Z,18.60
2022-10-13T01:37:41.630Z,15.70
2022-10-13T01:43:03.341Z,14.70
2022-10-13T01:48:07.326Z,14.80
2022-10-13T01:53:11.379Z,18.50
2022-10-13T01:58:13.818Z,17.20
2022-10-13T02:03:26.393Z,13.10
2022-10-13T02:08:40.305Z,16.70
2022-10-13T02:14:24.651Z,15.10
2022-10-13T02:19:27.588Z,16.60
2022-10-13T02:24:30.188Z,19.70
2022-10-13T02:29:32.845Z,15.10
2022-10-13T02:34:35.253Z,15.50
2022-10-13T02:39:37.716Z,11.70
2022-10-13T02:44:40.110Z,12.40
2022-10-13T02:49:42.740Z,15.40
2022-10-13T02:54:45.256Z,12.30
2022-10-13T02:59:47.946Z,11.70
2022-10-13T03:04:50.791Z,12.60
2022-10-13T03:09:53.561Z,10.10
2022-10-13T03:14:56.034Z,11.10
2022-10-13T03:19:58.499Z,11.60
2022-10-13T03:25:00.893Z,13.30
2022-10-13T03:30:03.924Z,12.90
2022-10-13T03:35:07.478Z,8.60
2022-10-13T03:40:10.481Z,10.20
2022-10-13T03:45:12.979Z,9.90
2022-10-13T03:50:15.633Z,7.80
2022-10-13T03:55:18.273Z,12.70
2022-10-13T04:00:20.780Z,9.80
2022-10-13T04:05:23.193Z,11.70
2022-10-13T04:10:25.979Z,10.50
2022-10-13T04:15:28.516Z,12.40
2022-10-13T04:20:31.039Z,9.80
2022-10-13T04:25:38.373Z,11.70
2022-10-13T04:30:43.706Z,12.50
2022-10-13T04:35:49.536Z,13.00
2022-10-13T04:40:51.979Z,14.50
2022-10-13T04:46:00.549Z,10.20
2022-10-13T04:51:08.157Z,9.80
2022-10-13T04:56:13.931Z,14.60
2022-10-13T05:01:22.600Z,15.70
2022-10-13T05:06:28.376Z,59.40
2022-10-13T05:11:32.004Z,36.20
2022-10-13T05:16:34.429Z,83.10
2022-10-13T05:21:37.029Z,76.50
2022-10-13T05:26:40.356Z,42.50
2022-10-13T05:31:42.843Z,26.90
2022-10-13T05:36:46.517Z,24.10
2022-10-13T05:41:51.785Z,18.30
2022-10-13T05:46:54.263Z,21.10
2022-10-13T05:52:02.263Z,17.50
2022-10-13T05:57:30.746Z,18.10
2022-10-13T06:02:40.702Z,17.40
2022-10-13T06:07:44.403Z,24.20
2022-10-13T06:12:47.009Z,16.00
2022-10-13T06:17:49.386Z,22.00
2022-10-13T06:22:51.832Z,15.30
2022-10-13T06:27:54.243Z,18.50
2022-10-13T06:32:56.881Z,14.80
2022-10-13T06:37:59.712Z,15.60
2022-10-13T06:43:05.544Z,15.50
2022-10-13T06:48:11.032Z,11.90
2022-10-13T06:53:15.020Z,15.40
2022-10-13T06:58:17.454Z,15.60
2022-10-13T07:03:20.871Z,14.80
2022-10-13T07:08:24.022Z,19.00
2022-10-13T07:13:26.555Z,16.70
2022-10-13T07:18:29.096Z,15.10
2022-10-13T07:23:31.515Z,14.40
2022-10-13T07:28:34.283Z,12.80
2022-10-13T07:33:36.860Z,13.90
2022-10-13T07:38:43.635Z,12.30
2022-10-13T07:43:46.696Z,12.50
2022-10-13T07:48:49.231Z,7.70
2022-10-13T07:53:52.300Z,7.70
2022-10-13T07:58:54.811Z,8.10
2022-10-13T08:03:57.252Z,11.30
2022-10-13T08:09:00.546Z,7.60
2022-10-13T08:14:03.802Z,7.00
2022-10-13T08:19:06.865Z,6.50
2022-10-13T08:24:12.560Z,11.10
2022-10-13T08:29:23.814Z,8.10
2022-10-13T08:34:26.817Z,6.80
2022-10-13T08:39:29.806Z,6.60
2022-10-13T08:50:07.002Z,6.50
2022-10-13T08:55:20.231Z,8.20
2022-10-13T09:00:22.861Z,5.70
2022-10-13T09:05:40.013Z,4.80
2022-10-13T09:10:51.057Z,8.90
2022-10-13T09:15:53.945Z,5.90
2022-10-13T09:21:20.684Z,7.80
2022-10-13T09:26:25.612Z,7.30
2022-10-13T09:31:30.458Z,6.70
2022-10-13T09:36:33.933Z,5.80
2022-10-13T09:41:36.344Z,8.00
2022-10-13T09:46:59.148Z,5.50
2022-10-13T09:52:28.280Z,7.70
2022-10-13T09:57:51.464Z,7.50
2022-10-13T10:02:59.815Z,9.10
2022-10-13T10:08:33.735Z,7.20
2022-10-13T10:13:47.140Z,8.10
2022-10-13T10:18:58.909Z,8.80
2022-10-13T10:24:39.238Z,7.10
2022-10-13T10:30:20.539Z,9.40
2022-10-13T10:36:00.943Z,7.20
2022-10-13T10:41:20.471Z,7.50
2022-10-13T10:46:25.866Z,6.30
2022-10-13T10:51:36.657Z,7.50
2022-10-13T10:56:42.766Z,10.90
2022-10-13T11:02:14.682Z,6.20
2022-10-13T11:07:23.237Z,7.20
2022-10-13T11:12:45.031Z,5.60
2022-10-13T11:17:47.621Z,5.30
2022-10-13T11:23:08.656Z,7.30
2022-10-13T11:28:49.036Z,9.20
2022-10-13T11:33:54.948Z,7.10
2022-10-13T11:44:49.872Z,9.80
2022-10-13T11:50:07.802Z,9.10
2022-10-13T11:55:37.801Z,7.90
2022-10-13T12:00:50.366Z,11.80
2022-10-13T12:05:53.449Z,7.60
2022-10-13T12:10:58.157Z,10.50
2022-10-13T12:16:08.239Z,10.80
2022-10-13T12:21:14.660Z,10.60
2022-10-13T12:26:24.145Z,8.20
2022-10-13T12:31:48.949Z,7.20
2022-10-13T12:36:56.382Z,10.10
2022-10-13T12:42:02.043Z,10.10
2022-10-13T12:47:04.838Z,10.20
2022-10-13T12:52:19.986Z,7.20
2022-10-13T12:57:38.006Z,9.60
2022-10-13T13:02:41.373Z,11.20
2022-10-13T13:07:52.740Z,7.50
2022-10-13T13:12:56.124Z,8.20
2022-10-13T13:18:29.374Z,9.50
2022-10-13T13:23:34.727Z,8.80
2022-10-13T13:28:38.623Z,11.50
2022-10-13T13:33:41.260Z,9.70
2022-10-13T13:38:44.090Z,8.10
2022-10-13T13:43:46.833Z,7.50
2022-10-13T13:48:49.763Z,8.90
2022-10-13T13:53:52.242Z,7.50
2022-10-13T13:58:54.678Z,8.40
2022-10-13T14:03:57.100Z,8.80
2022-10-13T14:08:59.743Z,7.80
2022-10-13T14:14:02.382Z,6.30
2022-10-13T14:19:04.847Z,11.30
2022-10-13T14:24:08.019Z,10.30
2022-10-13T14:29:10.682Z,9.60
2022-10-13T14:34:13.377Z,7.10
2022-10-13T14:39:16.077Z,10.70
2022-10-13T14:44:18.613Z,8.60
2022-10-13T14:49:21.058Z,6.10
2022-10-13T14:54:24.126Z,12.20
2022-10-13T14:59:26.677Z,11.90
2022-10-13T15:04:29.090Z,9.90
2022-10-13T15:09:45.035Z,12.60
2022-10-13T15:14:54.121Z,12.60
2022-10-13T15:19:56.506Z,11.50
2022-10-13T15:24:59.088Z,7.10
2022-10-13T15:30:01.841Z,8.10
2022-10-13T15:35:06.209Z,10.20
2022-10-13T15:40:09.441Z,10.20
2022-10-13T15:45:12.244Z,13.00
2022-10-13T15:50:15.119Z,10.90
2022-10-13T15:55:18.959Z,19.40
2022-10-13T16:00:21.503Z,20.80
2022-10-13T16:05:24.840Z,27.10
2022-10-13T16:10:27.256Z,25.80
2022-10-13T16:15:30.484Z,22.50
2022-10-13T16:20:35.204Z,17.10
2022-10-13T16:25:39.302Z,19.90
2022-10-13T16:30:43.016Z,20.50
2022-10-13T16:35:45.464Z,23.10
2022-10-13T16:40:47.906Z,16.70
2022-10-13T16:46:12.674Z,15.60
2022-10-13T16:51:21.745Z,17.10
2022-10-13T16:56:25.807Z,20.10
2022-10-13T17:01:30.126Z,29.70
2022-10-13T17:06:38.632Z,47.20
2022-10-13T17:11:43.663Z,46.60
2022-10-13T17:16:46.086Z,38.50
2022-10-13T17:21:48.895Z,26.30
2022-10-13T17:26:51.569Z,22.30
2022-10-13T17:31:54.057Z,24.10
2022-10-13T17:36:56.548Z,17.80
2022-10-13T17:41:59.180Z,17.40
2022-10-13T17:47:01.683Z,17.60
2022-10-13T17:52:04.230Z,22.10
2022-10-13T17:57:06.667Z,19.30
2022-10-13T18:02:09.867Z,18.00
2022-10-13T18:07:12.456Z,18.40
2022-10-13T18:12:14.932Z,19.00
2022-10-13T18:17:17.658Z,21.00
2022-10-13T18:22:20.296Z,24.50
2022-10-13T18:27:23.105Z,19.80
2022-10-13T18:32:25.890Z,20.60
2022-10-13T18:37:28.504Z,22.00
2022-10-13T18:42:31.405Z,22.70
2022-10-13T18:47:34.515Z,17.80
2022-10-13T18:52:37.054Z,20.50
2022-10-13T18:57:39.481Z,25.10
2022-10-13T19:02:41.935Z,27.80
2022-10-13T19:07:44.463Z,24.00
2022-10-13T19:12:46.880Z,26.10
2022-10-13T19:17:49.310Z,29.00
2022-10-13T19:22:52.757Z,25.90
2022-10-13T19:27:55.189Z,23.60
2022-10-13T19:32:57.790Z,26.90
2022-10-13T19:38:00.240Z,23.80
2022-10-13T19:43:03.385Z,24.30
2022-10-13T19:48:05.919Z,25.80
2022-10-13T19:53:10.251Z,26.70
2022-10-13T19:58:16.899Z,26.60
2022-10-13T20:03:19.686Z,24.10
2022-10-13T20:08:22.396Z,19.40
2022-10-13T20:13:25.068Z,18.30
2022-10-13T20:18:27.439Z,21.80
2022-10-13T20:23:30.523Z,23.80
2022-10-13T20:28:33.567Z,20.10
2022-10-13T20:33:36.341Z,20.20
2022-10-13T20:38:39.364Z,19.50
2022-10-13T20:43:41.825Z,25.50
2022-10-13T20:49:09.284Z,18.80
2022-10-13T20:54:07.769Z,16.70
2022-10-13T20:59:14.471Z,17.00
2022-10-13T21:04:17.035Z,15.40
2022-10-13T21:09:19.508Z,15.20
2022-10-13T21:14:22.075Z,15.50
2022-10-13T21:19:24.669Z,14.60
2022-10-13T21:24:27.422Z,19.90
2022-10-13T21:29:30.009Z,20.10
2022-10-13T21:34:32.479Z,17.40
2022-10-13T21:39:35.370Z,18.90
2022-10-13T21:44:37.878Z,17.40
2022-10-13T21:49:40.530Z,16.60
2022-10-13T21:54:43.013Z,23.40
2022-10-13T21:59:45.671Z,13.60
2022-10-13T22:04:49.594Z,13.50
2022-10-13T22:09:52.228Z,17.30
2022-10-13T22:14:54.757Z,20.50
2022-10-13T22:19:57.437Z,18.30
2022-10-13T22:25:00.405Z,16.90
2022-10-13T22:30:02.957Z,19.80
2022-10-13T22:35:05.744Z,17.40
2022-10-13T22:40:09.036Z,15.50
2022-10-13T22:45:11.611Z,16.00
2022-10-13T22:50:14.122Z,14.20
2022-10-13T22:55:16.990Z,16.50
2022-10-13T23:00:19.744Z,18.10
2022-10-13T23:05:22.241Z,20.80
2022-10-13T23:10:24.760Z,17.40
2022-10-13T23:15:27.180Z,17.00
2022-10-13T23:20:29.846Z,17.80
2022-10-13T23:25:37.415Z,21.00
2022-10-13T23:30:39.851Z,19.00
2022-10-13T23:35:42.888Z,20.60
2022-10-13T23:40:45.459Z,16.10
2022-10-13T23:45:47.992Z,18.80
2022-10-13T23:50:50.494Z,17.30
2022-10-13T23:55:53.177Z,21.90
